Time;durP1;ratioP1;P1;durP2;ratioP2;P2;SDS_P1;SDS_P2;PMS_P1;PMS_P2;Temp;Humidity;BMP_temperature;BMP_pressure;BME280_temperature;BME280_humidity;BME280_pressure;Samples;Min_cycle;Max_cycle;Signal;HPM_P1;HPM_P2
2023/09/28 00:01:38;;;;;;;;;;;18.30;99.90;;;;;;7315457;19;9318;-76
2023/09/28 00:04:07;;;;;;;;;;;18.20;99.90;;;;;;7321401;19;9716;-76
2023/09/28 00:06:56;;;;;;;;;;;18.20;99.90;;;;;;7313960;19;9398;-76
2023/09/28 00:09:22;;;;;;;;;;;18.20;99.90;;;;;;7315713;19;9312;-76
2023/09/28 00:12:11;;;;;;;;;;;18.20;99.90;;;;;;7314622;19;9352;-76
2023/09/28 00:14:38;;;;;;;;;;;18.20;99.90;;;;;;7318041;19;9327;-76
2023/09/28 00:17:09;;;;;;;;;;;18.20;99.90;;;;;;7317881;19;8944;-76
2023/09/28 00:19:38;;;;;;;;;;;18.10;99.90;;;;;;7321107;19;9285;-76
2023/09/28 00:22:07;;;;;;;;;;;18.10;99.90;;;;;;7317989;19;9451;-76
2023/09/28 00:24:34;;;;;;;;;;;18.10;99.90;;;;;;7320649;19;9372;-76
2023/09/28 00:27:04;;;;;;;;;;;18.10;99.90;;;;;;7318762;19;9305;-76
2023/09/28 00:29:30;;;;;;;;;;;18.00;99.90;;;;;;7318248;19;9383;-76
2023/09/28 00:32:04;;;;;;;;;;;18.00;99.90;;;;;;7316167;19;9272;-76
2023/09/28 00:34:30;;;;;;;;;;;18.00;99.90;;;;;;7317743;19;9240;-77
2023/09/28 00:37:02;;;;;;;;;;;17.90;99.90;;;;;;7316708;19;9373;-76
2023/09/28 00:39:29;;;;;;;;;;;17.90;99.90;;;;;;7309035;19;9495;-76
2023/09/28 00:41:58;;;;;;;;;;;17.90;99.90;;;;;;7312535;19;9238;-76
2023/09/28 00:44:24;;;;;;;;;;;17.90;99.90;;;;;;7315953;19;9186;-76
2023/09/28 00:46:53;;;;;;;;;;;17.90;99.90;;;;;;7320369;19;9394;-76
2023/09/28 00:49:20;;;;;;;;;;;17.90;99.90;;;;;;7320362;19;9237;-76
2023/09/28 00:51:50;;;;;;;;;;;17.90;99.90;;;;;;7317780;19;9646;-77
2023/09/28 00:54:21;;;;;;;;;;;17.90;99.90;;;;;;7317862;19;9258;-76
2023/09/28 00:56:51;;;;;;;;;;;17.80;99.90;;;;;;7318967;19;9210;-77
2023/09/28 00:59:21;;;;;;;;;;;17.80;99.90;;;;;;7317951;19;9284;-77
2023/09/28 01:01:50;;;;;;;;;;;17.80;99.90;;;;;;7318578;19;9599;-76
2023/09/28 01:04:17;;;;;;;;;;;17.80;99.90;;;;;;7318284;19;9018;-76
2023/09/28 01:06:46;;;;;;;;;;;17.80;99.90;;;;;;7311014;19;9548;-76
2023/09/28 01:09:13;;;;;;;;;;;17.90;99.90;;;;;;7317115;19;8944;-76
2023/09/28 01:11:48;;;;;;;;;;;17.90;99.90;;;;;;7315210;19;9201;-76
2023/09/28 01:14:14;;;;;;;;;;;18.00;99.90;;;;;;7319170;19;9302;-76
2023/09/28 01:16:43;;;;;;;;;;;18.00;99.90;;;;;;7318304;19;10307;-76
2023/09/28 01:19:11;;;;;;;;;;;18.00;99.90;;;;;;7317909;19;9589;-76
2023/09/28 01:21:40;;;;;;;;;;;18.10;99.90;;;;;;7319704;19;9210;-76
2023/09/28 01:24:10;;;;;;;;;;;18.10;99.90;;;;;;7317599;19;9214;-76
2023/09/28 01:26:39;;;;;;;;;;;18.10;99.90;;;;;;7315403;19;9227;-76
2023/09/28 01:29:06;;;;;;;;;;;18.20;99.90;;;;;;7317282;19;9665;-76
2023/09/28 01:31:42;;;;;;;;;;;18.20;99.90;;;;;;7318423;19;9264;-76
2023/09/28 01:34:09;;;;;;;;;;;18.10;99.90;;;;;;7317542;19;9273;-76
2023/09/28 01:36:38;;;;;;;;;;;18.10;99.90;;;;;;7317902;19;9004;-76
2023/09/28 01:39:08;;;;;;;;;;;18.10;99.90;;;;;;7310332;19;9360;-76
2023/09/28 01:41:57;;;;;;;;;;;18.10;99.90;;;;;;7314471;19;9436;-76
2023/09/28 01:44:23;;;;;;;;;;;18.10;99.90;;;;;;7317893;19;9235;-76
2023/09/28 01:47:01;;;;;;;;;;;18.10;99.90;;;;;;7322351;19;9522;-76
2023/09/28 01:49:28;;;;;;;;;;;18.20;99.90;;;;;;7325411;19;10150;-76
2023/09/28 01:51:57;;;;;;;;;;;18.20;99.90;;;;;;7320951;19;9152;-76
2023/09/28 01:54:26;;;;;;;;;;;18.20;99.90;;;;;;7322604;19;9341;-76
2023/09/28 01:56:55;;;;;;;;;;;18.20;99.90;;;;;;7324841;19;9310;-76
2023/09/28 01:59:22;;;;;;;;;;;18.30;99.90;;;;;;7324211;19;9570;-76
2023/09/28 02:01:53;;;;;;;;;;;18.30;99.90;;;;;;7321221;19;9572;-77
2023/09/28 02:04:20;;;;;;;;;;;18.40;99.90;;;;;;7322176;19;9076;-76
2023/09/28 02:06:49;;;;;;;;;;;18.40;99.90;;;;;;7321766;19;9490;-76
2023/09/28 02:09:38;;;;;;;;;;;18.30;99.90;;;;;;7319043;19;10438;-76
2023/09/28 02:12:07;;;;;;;;;;;18.30;99.90;;;;;;7323263;19;9175;-76
2023/09/28 02:14:34;;;;;;;;;;;18.40;99.90;;;;;;7322352;19;9264;-76
2023/09/28 02:17:03;;;;;;;;;;;18.40;99.90;;;;;;7323658;19;9226;-77
2023/09/28 02:19:29;;;;;;;;;;;18.50;99.90;;;;;;7324457;19;9154;-76
2023/09/28 02:21:58;;;;;;;;;;;18.40;99.90;;;;;;7322750;19;9281;-76
2023/09/28 02:24:26;;;;;;;;;;;18.40;99.90;;;;;;7321943;19;9276;-76
2023/09/28 02:26:57;;;;;;;;;;;18.40;99.90;;;;;;7320413;19;9399;-76
2023/09/28 02:29:24;;;;;;;;;;;18.40;99.90;;;;;;7322002;19;9496;-76
2023/09/28 02:31:53;;;;;;;;;;;18.30;99.90;;;;;;7319143;19;9498;-76
2023/09/28 02:34:19;;;;;;;;;;;18.20;99.90;;;;;;7321436;19;9265;-76
2023/09/28 02:36:48;;;;;;;;;;;18.20;99.90;;;;;;7322459;19;9445;-76
2023/09/28 02:39:15;;;;;;;;;;;18.20;99.90;;;;;;7320760;19;9372;-77
2023/09/28 02:41:44;;;;;;;;;;;18.20;99.90;;;;;;7319706;19;9174;-77
2023/09/28 02:44:16;;;;;;;;;;;18.10;99.90;;;;;;7318412;19;9187;-76
2023/09/28 02:46:42;;;;;;;;;;;18.10;99.90;;;;;;7320911;19;9582;-76
2023/09/28 02:49:12;;;;;;;;;;;18.10;99.90;;;;;;7323316;19;9322;-76
2023/09/28 02:51:38;;;;;;;;;;;18.10;99.90;;;;;;7323030;19;9288;-76
2023/09/28 02:54:08;;;;;;;;;;;18.10;99.90;;;;;;7323252;19;9230;-76
2023/09/28 02:56:35;;;;;;;;;;;18.10;99.90;;;;;;7318378;19;9462;-76
2023/09/28 02:59:06;;;;;;;;;;;18.00;99.90;;;;;;7321438;19;9369;-76
2023/09/28 03:01:35;;;;;;;;;;;18.00;99.90;;;;;;7321467;19;11093;-76
2023/09/28 03:04:04;;;;;;;;;;;17.90;99.90;;;;;;7323449;19;9218;-76
2023/09/28 03:06:37;;;;;;;;;;;17.90;99.90;;;;;;7316581;19;9533;-76
2023/09/28 03:09:08;;;;;;;;;;;17.90;99.90;;;;;;7317627;19;9602;-76
2023/09/28 03:11:36;;;;;;;;;;;17.90;99.90;;;;;;7318632;19;9293;-76
2023/09/28 03:14:05;;;;;;;;;;;17.90;99.90;;;;;;7319468;19;9082;-76
2023/09/28 03:16:32;;;;;;;;;;;17.80;99.90;;;;;;7318949;19;9266;-76
2023/09/28 03:19:24;;;;;;;;;;;17.80;99.90;;;;;;7319424;19;10941;-76
2023/09/28 03:21:50;;;;;;;;;;;17.80;99.90;;;;;;7321250;19;9311;-76
2023/09/28 03:24:19;;;;;;;;;;;17.80;99.90;;;;;;7320358;19;9260;-76
2023/09/28 03:26:46;;;;;;;;;;;17.80;99.90;;;;;;7318273;19;9512;-76
2023/09/28 03:29:15;;;;;;;;;;;17.70;99.90;;;;;;7320820;19;10638;-76
2023/09/28 03:32:01;;;;;;;;;;;17.70;99.90;;;;;;7319394;19;9475;-76
2023/09/28 03:34:33;;;;;;;;;;;17.70;99.90;;;;;;7317255;19;9281;-77
2023/09/28 03:37:03;;;;;;;;;;;17.60;99.90;;;;;;7322149;19;9347;-76
2023/09/28 03:39:32;;;;;;;;;;;17.60;99.90;;;;;;7313323;19;9226;-77
2023/09/28 03:42:02;;;;;;;;;;;17.50;99.90;;;;;;7321800;19;9498;-76
2023/09/28 03:44:37;;;;;;;;;;;17.60;99.90;;;;;;7321976;19;9340;-76
2023/09/28 03:47:07;;;;;;;;;;;17.70;99.90;;;;;;7317404;19;9265;-76
2023/09/28 03:49:39;;;;;;;;;;;17.60;99.90;;;;;;7320484;19;9237;-76
2023/09/28 03:52:28;;;;;;;;;;;17.60;99.90;;;;;;7319319;19;9510;-76
2023/09/28 03:54:59;;;;;;;;;;;17.50;99.90;;;;;;7319723;19;9461;-76
2023/09/28 03:57:29;;;;;;;;;;;17.50;99.90;;;;;;7316647;19;9439;-76
2023/09/28 03:59:58;;;;;;;;;;;17.50;99.90;;;;;;7320298;19;9226;-76
2023/09/28 04:02:29;;;;;;;;;;;17.40;99.90;;;;;;7318301;19;9601;-76
2023/09/28 04:05:01;;;;;;;;;;;17.40;99.90;;;;;;7321023;19;9464;-76
2023/09/28 04:07:30;;;;;;;;;;;17.40;99.90;;;;;;7315528;19;9276;-76
2023/09/28 04:09:59;;;;;;;;;;;17.40;99.90;;;;;;7317138;19;9265;-76
2023/09/28 04:12:30;;;;;;;;;;;17.40;99.90;;;;;;7317508;19;10463;-76
2023/09/28 04:14:59;;;;;;;;;;;17.40;99.90;;;;;;7317660;19;9404;-76
2023/09/28 04:17:28;;;;;;;;;;;17.30;99.90;;;;;;7320715;19;9396;-76
2023/09/28 04:19:57;;;;;;;;;;;17.30;99.90;;;;;;7320678;19;9683;-76
2023/09/28 04:22:29;;;;;;;;;;;17.30;99.90;;;;;;7317847;19;9534;-77
2023/09/28 04:24:58;;;;;;;;;;;17.20;99.90;;;;;;7321038;19;9338;-76
2023/09/28 04:27:29;;;;;;;;;;;17.20;99.90;;;;;;7317140;19;9470;-76
2023/09/28 04:29:58;;;;;;;;;;;17.10;99.90;;;;;;7318435;19;9273;-76
2023/09/28 04:32:27;;;;;;;;;;;17.10;99.90;;;;;;7318440;19;9293;-77
2023/09/28 04:34:56;;;;;;;;;;;17.10;99.90;;;;;;7313569;19;9595;-76
2023/09/28 04:37:28;;;;;;;;;;;17.00;99.90;;;;;;7321502;19;9217;-76
2023/09/28 04:39:57;;;;;;;;;;;17.00;99.90;;;;;;7312955;19;9270;-76
2023/09/28 04:42:26;;;;;;;;;;;17.00;99.90;;;;;;7319484;19;9365;-76
2023/09/28 04:44:55;;;;;;;;;;;17.00;99.90;;;;;;7321514;19;9258;-76
2023/09/28 04:47:27;;;;;;;;;;;17.00;99.90;;;;;;7318798;19;10015;-76
2023/09/28 04:49:59;;;;;;;;;;;17.00;99.90;;;;;;7321034;19;9269;-76
2023/09/28 04:52:31;;;;;;;;;;;17.00;99.90;;;;;;7320779;19;9294;-76
2023/09/28 04:55:01;;;;;;;;;;;17.00;99.90;;;;;;7322026;19;9408;-76
2023/09/28 04:57:31;;;;;;;;;;;17.00;99.90;;;;;;7321753;19;9099;-76
2023/09/28 05:00:09;;;;;;;;;;;16.90;99.90;;;;;;7319642;19;9574;-76
2023/09/28 05:02:38;;;;;;;;;;;16.90;99.90;;;;;;7319105;19;9301;-76
2023/09/28 05:05:08;;;;;;;;;;;16.90;99.90;;;;;;7320291;19;9214;-75
2023/09/28 05:07:40;;;;;;;;;;;16.90;99.90;;;;;;7320033;19;9214;-76
2023/09/28 05:10:11;;;;;;;;;;;17.00;99.90;;;;;;7317823;19;9480;-76
2023/09/28 05:13:00;;;;;;;;;;;16.90;99.90;;;;;;7318698;19;9246;-76
2023/09/28 05:15:32;;;;;;;;;;;17.00;99.90;;;;;;7316602;19;9580;-76
2023/09/28 05:18:01;;;;;;;;;;;17.10;99.90;;;;;;7319333;19;9711;-76
2023/09/28 05:20:39;;;;;;;;;;;17.00;99.90;;;;;;7322552;19;9285;-76
2023/09/28 05:23:11;;;;;;;;;;;17.00;99.90;;;;;;7326773;19;9271;-76
2023/09/28 05:25:40;;;;;;;;;;;17.00;99.90;;;;;;7326086;19;8944;-77
2023/09/28 05:28:09;;;;;;;;;;;17.00;99.90;;;;;;7326287;19;9226;-76
2023/09/28 05:30:38;;;;;;;;;;;17.00;99.90;;;;;;7323500;19;9501;-79
2023/09/28 05:33:07;;;;;;;;;;;17.00;99.90;;;;;;7321625;19;9745;-75
2023/09/28 05:35:36;;;;;;;;;;;16.90;99.90;;;;;;7324804;19;9125;-75
2023/09/28 05:38:15;;;;;;;;;;;16.90;99.90;;;;;;7326482;19;9218;-76
2023/09/28 05:40:44;;;;;;;;;;;16.90;99.90;;;;;;7320791;19;9498;-75
2023/09/28 05:43:13;;;;;;;;;;;16.80;99.90;;;;;;7322170;19;9258;-76
2023/09/28 05:45:42;;;;;;;;;;;16.70;99.90;;;;;;7325655;19;9222;-75
2023/09/28 05:48:11;;;;;;;;;;;16.80;99.90;;;;;;7325330;19;9195;-76
2023/09/28 05:51:00;;;;;;;;;;;16.80;99.90;;;;;;7323139;19;9212;-75
2023/09/28 05:53:31;;;;;;;;;;;16.80;99.90;;;;;;7326653;19;9242;-76
2023/09/28 05:56:03;;;;;;;;;;;16.80;99.90;;;;;;7326013;19;8948;-75
2023/09/28 05:58:31;;;;;;;;;;;16.80;99.90;;;;;;7325524;19;9423;-75
2023/09/28 06:01:09;;;;;;;;;;;16.80;99.90;;;;;;7325900;19;9295;-77
2023/09/28 06:03:43;;;;;;;;;;;16.70;99.90;;;;;;7316971;19;9279;-78
2023/09/28 06:06:22;;;;;;;;;;;16.80;99.90;;;;;;7324222;19;9214;-76
2023/09/28 06:08:54;;;;;;;;;;;16.80;99.90;;;;;;7322862;19;9325;-77
2023/09/28 06:11:44;;;;;;;;;;;16.80;99.90;;;;;;7322149;19;9177;-77
2023/09/28 06:14:13;;;;;;;;;;;17.00;99.90;;;;;;7320802;19;9608;-77
2023/09/28 06:16:42;;;;;;;;;;;17.10;99.90;;;;;;7320238;19;9273;-74
2023/09/28 06:19:12;;;;;;;;;;;17.10;99.90;;;;;;7324681;19;9462;-74
2023/09/28 06:21:41;;;;;;;;;;;17.30;99.90;;;;;;7323071;19;9356;-72
2023/09/28 06:24:12;;;;;;;;;;;17.50;99.90;;;;;;7319903;19;9531;-76
2023/09/28 06:26:41;;;;;;;;;;;17.70;99.90;;;;;;7316457;19;9216;-76
2023/09/28 06:29:11;;;;;;;;;;;18.00;99.90;;;;;;7318589;19;9399;-76
2023/09/28 06:31:41;;;;;;;;;;;18.10;99.90;;;;;;7314186;19;8944;-76
2023/09/28 06:34:10;;;;;;;;;;;18.30;99.90;;;;;;7317325;19;9263;-76
2023/09/28 06:36:39;;;;;;;;;;;18.40;99.90;;;;;;7318331;19;9691;-76
2023/09/28 06:39:16;;;;;;;;;;;18.40;99.90;;;;;;7310452;19;13826;-76
2023/09/28 06:42:05;;;;;;;;;;;18.40;99.90;;;;;;7318103;19;9084;-76
2023/09/28 06:44:34;;;;;;;;;;;18.50;99.90;;;;;;7317724;19;9358;-76
2023/09/28 06:47:04;;;;;;;;;;;18.40;99.90;;;;;;7320622;19;9262;-76
2023/09/28 06:49:34;;;;;;;;;;;18.40;99.90;;;;;;7316626;19;9287;-76
2023/09/28 06:52:03;;;;;;;;;;;18.40;99.90;;;;;;7318400;19;9299;-76
2023/09/28 06:54:36;;;;;;;;;;;18.30;99.90;;;;;;7321570;19;9243;-76
2023/09/28 06:57:06;;;;;;;;;;;18.40;99.90;;;;;;7314462;19;9582;-76
2023/09/28 06:59:34;;;;;;;;;;;18.30;99.90;;;;;;7317180;19;10320;-76
2023/09/28 07:02:04;;;;;;;;;;;18.10;99.90;;;;;;7318262;19;9303;-75
2023/09/28 07:04:33;;;;;;;;;;;18.10;99.90;;;;;;7314715;19;10222;-76
2023/09/28 07:07:02;;;;;;;;;;;18.10;99.90;;;;;;7313106;19;9112;-76
2023/09/28 07:09:32;;;;;;;;;;;18.20;99.90;;;;;;7312723;19;9339;-76
2023/09/28 07:12:04;;;;;;;;;;;18.20;99.90;;;;;;7319292;19;9136;-76
2023/09/28 07:14:33;;;;;;;;;;;18.20;99.90;;;;;;7316777;19;9448;-76
2023/09/28 07:17:02;;;;;;;;;;;18.10;99.90;;;;;;7316100;19;10669;-76
2023/09/28 07:19:31;;;;;;;;;;;18.10;99.90;;;;;;7316336;19;11936;-76
2023/09/28 07:22:01;;;;;;;;;;;18.20;99.90;;;;;;7321989;19;9229;-75
2023/09/28 07:24:50;;;;;;;;;;;18.30;99.90;;;;;;7319088;19;9245;-76
2023/09/28 07:27:21;;;;;;;;;;;18.50;99.90;;;;;;7312646;19;9451;-76
2023/09/28 07:29:50;;;;;;;;;;;18.50;99.90;;;;;;7317395;19;9329;-75
2023/09/28 07:32:19;;;;;;;;;;;18.70;99.90;;;;;;7312375;19;9296;-76
2023/09/28 07:34:48;;;;;;;;;;;18.60;99.90;;;;;;7316807;19;9403;-75
2023/09/28 07:37:18;;;;;;;;;;;18.70;99.90;;;;;;7320063;19;9420;-76
2023/09/28 07:39:47;;;;;;;;;;;18.70;99.90;;;;;;7310130;19;9423;-76
2023/09/28 07:42:16;;;;;;;;;;;18.70;99.90;;;;;;7318199;19;9404;-76
2023/09/28 07:44:49;;;;;;;;;;;18.90;99.90;;;;;;7316661;19;10209;-76
2023/09/28 07:47:18;;;;;;;;;;;19.20;99.90;;;;;;7312385;19;10307;-76
2023/09/28 07:49:48;;;;;;;;;;;19.40;99.90;;;;;;7319048;19;9231;-76
2023/09/28 07:52:23;;;;;;;;;;;19.60;99.90;;;;;;7321340;19;9667;-76
2023/09/28 07:54:52;;;;;;;;;;;19.60;99.90;;;;;;7312956;19;9089;-76
2023/09/28 07:57:22;;;;;;;;;;;19.70;99.90;;;;;;7314998;19;9205;-76
2023/09/28 07:59:54;;;;;;;;;;;19.70;99.90;;;;;;7315750;19;9522;-76
2023/09/28 08:02:23;;;;;;;;;;;19.80;99.90;;;;;;7311688;19;9303;-76
2023/09/28 08:05:12;;;;;;;;;;;19.70;99.90;;;;;;7313375;19;9477;-76
2023/09/28 08:07:42;;;;;;;;;;;19.70;99.90;;;;;;7312521;19;9475;-76
2023/09/28 08:10:12;;;;;;;;;;;19.90;99.90;;;;;;7307613;19;9511;-76
2023/09/28 08:12:42;;;;;;;;;;;20.00;99.90;;;;;;7311156;19;9720;-76
2023/09/28 08:15:15;;;;;;;;;;;20.10;99.90;;;;;;7318982;19;9163;-76
2023/09/28 08:17:47;;;;;;;;;;;20.10;99.90;;;;;;7319952;19;9275;-76
2023/09/28 08:20:20;;;;;;;;;;;20.10;99.90;;;;;;7322450;19;9587;-76
2023/09/28 08:23:09;;;;;;;;;;;20.10;99.90;;;;;;7316669;19;9314;-76
2023/09/28 08:25:38;;;;;;;;;;;20.10;99.90;;;;;;7321679;19;9217;-75
2023/09/28 08:28:07;;;;;;;;;;;20.10;99.90;;;;;;7321916;19;9230;-74
2023/09/28 08:30:39;;;;;;;;;;;20.30;99.90;;;;;;7317000;19;8948;-76
2023/09/28 08:33:09;;;;;;;;;;;20.30;99.90;;;;;;7316862;19;8944;-76
2023/09/28 08:35:38;;;;;;;;;;;20.30;99.90;;;;;;7320701;19;9210;-76
2023/09/28 08:38:07;;;;;;;;;;;20.40;99.90;;;;;;7321342;19;9326;-76
2023/09/28 08:40:36;;;;;;;;;;;20.50;99.90;;;;;;7315411;19;9562;-76
2023/09/28 08:43:07;;;;;;;;;;;20.60;99.90;;;;;;7322020;19;9267;-76
2023/09/28 08:45:41;;;;;;;;;;;20.60;99.90;;;;;;7317148;19;9507;-76
2023/09/28 08:48:12;;;;;;;;;;;20.70;99.90;;;;;;7321201;19;10654;-76
2023/09/28 08:50:42;;;;;;;;;;;20.70;99.90;;;;;;7319057;19;9110;-76
2023/09/28 08:53:12;;;;;;;;;;;20.80;99.90;;;;;;7319521;19;9249;-75
2023/09/28 08:55:42;;;;;;;;;;;20.90;99.90;;;;;;7315098;19;9279;-76
2023/09/28 08:58:14;;;;;;;;;;;20.90;99.90;;;;;;7320159;19;10486;-76
2023/09/28 09:00:46;;;;;;;;;;;20.80;99.90;;;;;;7318770;19;10228;-75
2023/09/28 09:03:16;;;;;;;;;;;20.80;99.90;;;;;;7321019;19;10473;-75
2023/09/28 09:05:48;;;;;;;;;;;20.80;99.90;;;;;;7319155;19;10406;-76
2023/09/28 09:08:18;;;;;;;;;;;20.70;99.90;;;;;;7323941;19;9004;-75
2023/09/28 09:10:49;;;;;;;;;;;20.80;99.90;;;;;;7312645;19;9261;-76
2023/09/28 09:13:19;;;;;;;;;;;20.90;99.90;;;;;;7324277;19;9507;-75
2023/09/28 09:15:52;;;;;;;;;;;20.90;99.90;;;;;;7323975;19;9457;-76
2023/09/28 09:18:22;;;;;;;;;;;20.80;99.90;;;;;;7315811;19;9569;-75
2023/09/28 09:20:52;;;;;;;;;;;20.80;99.90;;;;;;7294473;19;9451;-75
2023/09/28 09:23:22;;;;;;;;;;;20.70;99.90;;;;;;7310969;19;9562;-76
2023/09/28 09:25:53;;;;;;;;;;;20.80;99.90;;;;;;7318462;19;9270;-76
2023/09/28 09:28:32;;;;;;;;;;;20.80;99.90;;;;;;7319016;19;9269;-76
2023/09/28 09:31:04;;;;;;;;;;;20.90;99.90;;;;;;7318347;19;9269;-76
2023/09/28 09:33:33;;;;;;;;;;;20.80;99.90;;;;;;7168509;19;13130;-75
2023/09/28 09:36:02;;;;;;;;;;;20.80;99.90;;;;;;5801146;19;5021079;-76
2023/09/28 09:38:32;;;;;;;;;;;20.80;99.90;;;;;;7315384;19;10204;-76
2023/09/28 09:41:04;;;;;;;;;;;20.70;99.90;;;;;;7315961;19;9237;-75
2023/09/28 09:43:34;;;;;;;;;;;20.70;99.90;;;;;;7317081;19;9241;-75
2023/09/28 09:46:27;;;;;;;;;;;20.70;99.90;;;;;;7311054;19;9443;-76
2023/09/28 09:48:58;;;;;;;;;;;20.80;99.90;;;;;;7319041;19;9194;-76
2023/09/28 09:51:28;;;;;;;;;;;20.80;99.90;;;;;;7315291;19;9272;-76
2023/09/28 09:53:58;;;;;;;;;;;20.90;99.90;;;;;;7315072;19;9159;-76
2023/09/28 09:56:30;;;;;;;;;;;21.00;99.90;;;;;;7315883;19;9475;-76
2023/09/28 09:59:02;;;;;;;;;;;21.00;99.90;;;;;;7313681;19;9228;-76
2023/09/28 10:01:39;;;;;;;;;;;21.10;99.90;;;;;;7314349;19;9495;-77
2023/09/28 10:04:12;;;;;;;;;;;21.10;99.90;;;;;;7312867;19;9261;-76
2023/09/28 10:06:44;;;;;;;;;;;21.10;99.90;;;;;;7319551;19;9293;-76
2023/09/28 10:09:15;;;;;;;;;;;21.10;99.90;;;;;;7319853;19;9227;-77
2023/09/28 10:11:45;;;;;;;;;;;21.30;99.90;;;;;;7320962;19;9181;-79
2023/09/28 10:14:16;;;;;;;;;;;21.40;99.90;;;;;;7324546;19;9303;-79
2023/09/28 10:16:50;;;;;;;;;;;21.40;99.90;;;;;;7324525;19;8945;-79
2023/09/28 10:19:41;;;;;;;;;;;21.40;99.90;;;;;;7318144;19;9324;-74
2023/09/28 10:22:14;;;;;;;;;;;21.50;99.90;;;;;;7321955;19;9578;-75
2023/09/28 10:24:44;;;;;;;;;;;21.60;99.90;;;;;;7326085;19;9725;-74
2023/09/28 10:27:14;;;;;;;;;;;21.40;99.90;;;;;;7323039;19;9123;-77
2023/09/28 10:29:44;;;;;;;;;;;21.40;99.90;;;;;;7322048;19;9482;-78
2023/09/28 10:32:30;;;;;;;;;;;21.50;99.90;;;;;;7318818;19;9421;-79
2023/09/28 10:35:26;;;;;;;;;;;21.60;99.90;;;;;;7322677;19;9399;-78
2023/09/28 10:38:22;;;;;;;;;;;21.60;99.90;;;;;;7324577;19;9000;-78
2023/09/28 10:41:05;;;;;;;;;;;21.70;99.90;;;;;;7318927;19;11197;-78
2023/09/28 10:43:54;;;;;;;;;;;21.70;99.90;;;;;;7319093;19;9283;-78
2023/09/28 10:46:23;;;;;;;;;;;21.50;99.90;;;;;;7323921;19;9214;-78
2023/09/28 10:49:00;;;;;;;;;;;21.50;99.90;;;;;;7322504;19;9285;-78
2023/09/28 10:51:29;;;;;;;;;;;21.50;99.90;;;;;;7322442;19;9274;-79
2023/09/28 10:53:58;;;;;;;;;;;21.40;99.40;;;;;;7322377;19;9652;-80
2023/09/28 10:56:27;;;;;;;;;;;21.40;99.90;;;;;;7322208;19;9281;-79
2023/09/28 10:59:16;;;;;;;;;;;21.40;99.90;;;;;;7320666;19;9411;-79
2023/09/28 11:01:47;;;;;;;;;;;21.40;99.90;;;;;;7318797;19;9443;-77
2023/09/28 11:04:40;;;;;;;;;;;21.40;99.90;;;;;;7318904;19;9317;-78
2023/09/28 11:07:10;;;;;;;;;;;21.40;99.90;;;;;;7324062;19;9462;-78
2023/09/28 11:09:41;;;;;;;;;;;21.40;99.90;;;;;;7320290;19;8944;-79
2023/09/28 11:12:13;;;;;;;;;;;21.30;99.90;;;;;;7315383;19;9276;-77
2023/09/28 11:15:03;;;;;;;;;;;21.30;99.90;;;;;;7320686;19;9567;-78
2023/09/28 11:17:32;;;;;;;;;;;21.30;99.90;;;;;;7321276;19;9511;-78
2023/09/28 11:20:06;;;;;;;;;;;21.20;99.90;;;;;;7320523;19;9468;-78
2023/09/28 11:22:35;;;;;;;;;;;21.20;99.90;;;;;;7319559;19;9391;-80
2023/09/28 11:25:04;;;;;;;;;;;21.30;99.90;;;;;;7322356;19;9186;-77
2023/09/28 11:27:54;;;;;;;;;;;21.30;99.90;;;;;;7298577;19;9231;-75
2023/09/28 11:30:23;;;;;;;;;;;21.30;99.90;;;;;;7318318;19;9371;-75
2023/09/28 11:32:53;;;;;;;;;;;21.30;99.90;;;;;;7305585;19;9163;-75
2023/09/28 11:35:34;;;;;;;;;;;21.30;99.90;;;;;;7317138;19;9182;-73
2023/09/28 11:38:06;;;;;;;;;;;21.30;99.90;;;;;;7322556;19;9173;-74
2023/09/28 11:40:35;;;;;;;;;;;21.30;99.90;;;;;;7317008;19;9225;-73
2023/09/28 11:43:04;;;;;;;;;;;21.40;99.90;;;;;;7320649;19;9493;-74
2023/09/28 11:45:36;;;;;;;;;;;21.40;99.90;;;;;;7320167;19;10870;-74
2023/09/28 11:48:25;;;;;;;;;;;21.40;99.90;;;;;;7320521;19;9529;-75
2023/09/28 11:50:56;;;;;;;;;;;21.50;99.90;;;;;;7321287;19;9335;-73
2023/09/28 11:53:25;;;;;;;;;;;21.50;99.90;;;;;;7318613;19;9601;-74
2023/09/28 11:55:54;;;;;;;;;;;21.50;99.90;;;;;;7322483;19;9214;-73
2023/09/28 11:58:23;;;;;;;;;;;21.40;98.90;;;;;;7322506;19;9265;-74
2023/09/28 12:00:52;;;;;;;;;;;21.40;99.90;;;;;;7321909;19;9553;-75
2023/09/28 12:03:23;;;;;;;;;;;21.40;99.90;;;;;;7317467;19;9515;-74
2023/09/28 12:05:52;;;;;;;;;;;21.50;99.90;;;;;;7322429;19;9385;-73
2023/09/28 12:08:24;;;;;;;;;;;21.50;99.90;;;;;;7321336;19;9474;-74
2023/09/28 12:10:53;;;;;;;;;;;21.50;99.90;;;;;;7317461;19;10418;-76
2023/09/28 12:13:22;;;;;;;;;;;21.50;99.90;;;;;;7322619;19;10630;-73
2023/09/28 12:15:51;;;;;;;;;;;21.60;99.90;;;;;;7320385;19;9160;-74
2023/09/28 12:18:21;;;;;;;;;;;21.50;99.90;;;;;;7321026;19;9149;-75
2023/09/28 12:20:50;;;;;;;;;;;21.70;99.90;;;;;;7316957;19;10659;-75
2023/09/28 12:23:19;;;;;;;;;;;21.60;99.80;;;;;;7319166;19;9474;-73
2023/09/28 12:25:51;;;;;;;;;;;21.80;99.80;;;;;;7318584;19;9344;-72
2023/09/28 12:28:22;;;;;;;;;;;21.90;98.80;;;;;;7319945;19;9125;-73
2023/09/28 12:30:51;;;;;;;;;;;22.00;98.30;;;;;;7316511;19;9206;-75
2023/09/28 12:33:20;;;;;;;;;;;22.10;98.70;;;;;;7321512;19;8944;-74
2023/09/28 12:35:49;;;;;;;;;;;22.10;98.10;;;;;;7317546;19;10186;-74
2023/09/28 12:38:18;;;;;;;;;;;22.00;98.30;;;;;;7318293;19;9286;-74
2023/09/28 12:40:48;;;;;;;;;;;21.90;98.00;;;;;;7311745;19;9431;-75
2023/09/28 12:43:20;;;;;;;;;;;21.80;97.30;;;;;;7321856;19;9128;-74
2023/09/28 12:45:50;;;;;;;;;;;21.70;98.30;;;;;;7319155;19;9749;-74
2023/09/28 12:48:20;;;;;;;;;;;21.70;99.20;;;;;;7318641;19;9027;-74
2023/09/28 12:50:50;;;;;;;;;;;21.80;99.40;;;;;;7320998;19;9261;-74
2023/09/28 12:53:19;;;;;;;;;;;21.70;98.70;;;;;;7319617;19;9117;-74
2023/09/28 12:55:49;;;;;;;;;;;21.70;99.00;;;;;;7320763;19;9244;-74
2023/09/28 12:58:22;;;;;;;;;;;21.70;98.70;;;;;;7318057;19;9322;-75
2023/09/28 13:00:51;;;;;;;;;;;21.60;99.00;;;;;;7319854;19;9000;-74
2023/09/28 13:03:20;;;;;;;;;;;21.60;99.40;;;;;;7322533;19;9899;-74
2023/09/28 13:05:50;;;;;;;;;;;21.70;98.10;;;;;;7319287;19;9453;-74
2023/09/28 13:08:19;;;;;;;;;;;21.80;99.20;;;;;;7319312;19;9278;-75
2023/09/28 13:10:48;;;;;;;;;;;21.80;97.70;;;;;;7317423;19;9620;-75
2023/09/28 13:13:18;;;;;;;;;;;21.90;96.70;;;;;;7320060;19;9171;-75
2023/09/28 13:15:49;;;;;;;;;;;21.90;98.70;;;;;;7318367;19;9295;-74
2023/09/28 13:18:18;;;;;;;;;;;21.90;98.20;;;;;;7316479;19;9467;-75
2023/09/28 13:20:48;;;;;;;;;;;21.90;98.10;;;;;;7319338;19;9272;-73
2023/09/28 13:23:17;;;;;;;;;;;21.90;98.60;;;;;;7321976;19;10363;-73
2023/09/28 13:25:46;;;;;;;;;;;21.90;98.50;;;;;;7316699;19;9711;-73
2023/09/28 13:28:15;;;;;;;;;;;22.00;98.10;;;;;;7318180;19;9326;-74
2023/09/28 13:30:44;;;;;;;;;;;21.90;98.60;;;;;;7320426;19;8945;-76
2023/09/28 13:33:16;;;;;;;;;;;21.90;98.10;;;;;;7317428;19;8944;-74
2023/09/28 13:35:45;;;;;;;;;;;21.80;97.80;;;;;;7320844;19;9201;-74
2023/09/28 13:38:14;;;;;;;;;;;21.80;97.70;;;;;;7319818;19;11397;-74
2023/09/28 13:40:43;;;;;;;;;;;21.70;97.70;;;;;;7317419;19;9432;-73
2023/09/28 13:43:12;;;;;;;;;;;21.60;98.30;;;;;;7327528;19;9173;-75
2023/09/28 13:45:43;;;;;;;;;;;21.50;98.20;;;;;;7325941;19;9465;-74
2023/09/28 13:48:14;;;;;;;;;;;21.60;98.50;;;;;;7327087;19;9019;-74
2023/09/28 13:50:44;;;;;;;;;;;21.50;97.40;;;;;;7327414;19;9149;-74
2023/09/28 13:53:13;;;;;;;;;;;21.60;98.90;;;;;;7327909;19;9170;-74
2023/09/28 13:55:42;;;;;;;;;;;21.60;98.70;;;;;;7322188;19;9062;-73
2023/09/28 13:58:16;;;;;;;;;;;21.50;99.30;;;;;;7324636;19;8953;-74
2023/09/28 14:00:45;;;;;;;;;;;21.50;99.10;;;;;;7324765;19;8944;-74
2023/09/28 14:03:17;;;;;;;;;;;21.50;99.40;;;;;;7327129;19;9082;-75
2023/09/28 14:05:48;;;;;;;;;;;21.50;98.60;;;;;;7323782;19;9253;-74
2023/09/28 14:08:18;;;;;;;;;;;21.50;98.30;;;;;;7321844;19;8956;-74
2023/09/28 14:10:47;;;;;;;;;;;21.50;98.90;;;;;;7321651;19;9326;-74
2023/09/28 14:13:16;;;;;;;;;;;21.40;99.50;;;;;;7324151;19;9433;-73
2023/09/28 14:15:45;;;;;;;;;;;21.40;99.70;;;;;;7325148;19;9244;-74
2023/09/28 14:18:17;;;;;;;;;;;21.40;98.50;;;;;;7322348;19;9234;-74
2023/09/28 14:20:46;;;;;;;;;;;21.30;98.40;;;;;;7321053;19;9263;-74
2023/09/28 14:23:15;;;;;;;;;;;21.20;97.90;;;;;;7323824;19;9260;-74
2023/09/28 14:25:44;;;;;;;;;;;21.20;99.70;;;;;;7320106;19;9254;-74
2023/09/28 14:28:13;;;;;;;;;;;21.10;99.50;;;;;;7318688;19;9437;-75
2023/09/28 14:30:42;;;;;;;;;;;21.10;99.60;;;;;;7320189;19;9245;-73
2023/09/28 14:33:11;;;;;;;;;;;21.10;99.90;;;;;;7318923;19;10442;-74
2023/09/28 14:35:42;;;;;;;;;;;21.10;99.90;;;;;;7320528;19;8995;-75
2023/09/28 14:38:12;;;;;;;;;;;21.20;99.90;;;;;;7323843;19;9475;-75
2023/09/28 14:40:41;;;;;;;;;;;21.10;99.90;;;;;;7315878;19;9368;-74
2023/09/28 14:43:10;;;;;;;;;;;21.20;99.90;;;;;;7324557;19;9061;-74
2023/09/28 14:45:39;;;;;;;;;;;21.20;99.90;;;;;;7318981;19;9542;-74
2023/09/28 14:48:08;;;;;;;;;;;21.10;99.90;;;;;;7318990;19;10050;-74
2023/09/28 14:50:38;;;;;;;;;;;21.20;99.60;;;;;;7324991;19;9385;-74
2023/09/28 14:53:12;;;;;;;;;;;21.30;99.90;;;;;;7321530;19;10166;-74